createdAt,value
2023-04-15T00:00:01.237Z,95838.28
2023-04-15T00:02:27.917Z,95826.22
2023-04-15T00:04:54.471Z,95818.19
2023-04-15T00:07:21.435Z,95821.91
2023-04-15T00:09:47.897Z,95815.28
2023-04-15T00:12:14.322Z,95805.66
2023-04-15T00:14:40.794Z,95829.59
2023-04-15T00:17:07.192Z,95818.03
2023-04-15T00:19:33.616Z,95846.81
2023-04-15T00:22:00.367Z,95820.28
2023-04-15T00:24:26.780Z,95793.91
2023-04-15T00:26:53.215Z,95800.91
2023-04-15T00:29:19.684Z,95827.38
2023-04-15T00:31:46.180Z,95807.69
2023-04-15T00:34:12.739Z,95803.59
2023-04-15T00:36:39.297Z,95794.63
2023-04-15T00:39:05.751Z,95798.31
2023-04-15T00:41:32.198Z,95794.47
2023-04-15T00:43:58.672Z,95813.19
2023-04-15T00:46:25.175Z,95790.44
2023-04-15T00:48:51.785Z,95787.03
2023-04-15T00:51:18.345Z,95788.34
2023-04-15T00:53:44.742Z,95794.47
2023-04-15T00:56:11.167Z,95806.97
2023-04-15T00:58:37.811Z,95783.41
2023-04-15T01:01:04.258Z,95781.16
2023-04-15T01:03:30.799Z,95757.03
2023-04-15T01:05:57.446Z,95790.00
2023-04-15T01:08:29.846Z,95792.69
2023-04-15T01:11:01.313Z,95786.47
2023-04-15T01:13:27.722Z,95786.50
2023-04-15T01:15:54.239Z,95779.69
2023-04-15T01:18:20.675Z,95784.88
2023-04-15T01:20:47.129Z,95787.03
2023-04-15T01:23:13.873Z,95788.56
2023-04-15T01:25:40.397Z,95808.97
2023-04-15T01:28:06.908Z,95787.38
2023-04-15T01:30:36.451Z,95792.28
2023-04-15T01:33:03.183Z,95790.78
2023-04-15T01:35:29.771Z,95792.16
2023-04-15T01:37:56.224Z,95808.72
2023-04-15T01:40:22.779Z,95818.03
2023-04-15T01:42:49.353Z,95797.72
2023-04-15T01:48:36.151Z,95803.81
2023-04-15T01:51:02.676Z,95794.19
2023-04-15T01:53:29.201Z,95789.41
2023-04-15T01:55:55.651Z,95773.31
2023-04-15T01:58:22.065Z,95811.91
2023-04-15T02:00:48.539Z,95795.19
2023-04-15T02:03:15.290Z,95793.84
2023-04-15T02:05:41.792Z,95803.66
2023-04-15T02:08:08.220Z,95793.97
2023-04-15T02:10:34.693Z,95788.28
2023-04-15T02:13:01.261Z,95783.72
2023-04-15T02:15:27.755Z,95767.31
2023-04-15T02:17:54.360Z,95778.28
2023-04-15T02:20:20.932Z,95797.81
2023-04-15T02:22:47.474Z,95782.13
2023-04-15T02:25:14.163Z,95787.25
2023-04-15T02:27:40.589Z,95778.78
2023-04-15T02:30:07.273Z,95782.94
2023-04-15T02:32:33.769Z,95794.72
2023-04-15T02:35:07.051Z,95778.16
2023-04-15T02:37:33.660Z,95790.84
2023-04-15T02:40:00.192Z,95762.09
2023-04-15T02:42:26.675Z,95818.47
2023-04-15T02:44:53.142Z,95783.72
2023-04-15T02:47:19.595Z,95780.75
2023-04-15T02:49:46.134Z,95782.34
2023-04-15T02:52:12.711Z,95796.78
2023-04-15T02:54:39.270Z,95780.03
2023-04-15T02:57:05.703Z,95799.44
2023-04-15T02:59:32.214Z,95779.16
2023-04-15T03:01:58.609Z,95776.47
2023-04-15T03:04:25.256Z,95772.81
2023-04-15T03:06:51.735Z,95780.09
2023-04-15T03:09:18.524Z,95781.34
2023-04-15T03:11:44.956Z,95790.63
2023-04-15T03:14:11.403Z,95769.03
2023-04-15T03:16:37.867Z,95781.47
2023-04-15T03:19:04.344Z,95766.44
2023-04-15T03:21:30.788Z,95767.13
2023-04-15T03:23:57.261Z,95774.75
2023-04-15T03:26:24.429Z,95775.25
2023-04-15T03:28:51.081Z,95816.81
2023-04-15T03:31:17.645Z,95749.91
2023-04-15T03:33:44.147Z,95778.16
2023-04-15T03:36:10.592Z,95780.97
2023-04-15T03:38:37.384Z,95791.00
2023-04-15T03:41:03.825Z,95750.69
2023-04-15T03:43:30.413Z,95774.97
2023-04-15T03:45:56.900Z,95769.63
2023-04-15T03:48:23.470Z,95774.63
2023-04-15T03:50:50.024Z,95750.69
2023-04-15T03:53:16.520Z,95777.63
2023-04-15T03:55:43.043Z,95753.94
2023-04-15T03:58:09.488Z,95777.94
2023-04-15T04:00:36.033Z,95775.75
2023-04-15T04:03:02.651Z,95775.06
2023-04-15T04:05:29.219Z,95786.41
2023-04-15T04:07:55.716Z,95780.63
2023-04-15T04:10:22.148Z,95769.94
2023-04-15T04:12:48.585Z,95762.84
2023-04-15T04:15:15.170Z,95788.53
2023-04-15T04:17:41.646Z,95783.25
2023-04-15T04:20:08.389Z,95769.63
2023-04-15T04:22:38.567Z,95782.19
2023-04-15T04:25:05.204Z,95778.13
2023-04-15T04:30:32.385Z,95788.66
2023-04-15T04:32:59.044Z,95790.22
2023-04-15T04:35:25.517Z,95785.44
2023-04-15T04:37:52.044Z,95794.97
2023-04-15T04:40:18.707Z,95805.00
2023-04-15T04:42:45.238Z,95785.78
2023-04-15T04:45:11.727Z,95797.69
2023-04-15T04:47:38.201Z,95789.34
2023-04-15T04:50:04.805Z,95803.22
2023-04-15T04:52:31.480Z,95804.19
2023-04-15T04:54:57.860Z,95800.66
2023-04-15T04:57:24.331Z,95804.63
2023-04-15T04:59:50.837Z,95822.84
2023-04-15T05:02:17.500Z,95798.63
2023-04-15T05:04:44.080Z,95805.00
2023-04-15T05:07:10.573Z,95796.91
2023-04-15T05:09:37.165Z,95817.06
2023-04-15T05:12:06.829Z,95800.53
2023-04-15T05:14:33.466Z,95814.75
2023-04-15T05:16:59.949Z,95799.22
2023-04-15T05:19:26.466Z,95822.16
2023-04-15T05:21:52.949Z,95798.72
2023-04-15T05:24:54.144Z,95801.34
2023-04-15T05:27:54.540Z,95862.16
2023-04-15T05:30:38.807Z,95834.69
2023-04-15T05:33:05.484Z,95801.25
2023-04-15T05:35:32.026Z,95832.94
2023-04-15T05:37:58.543Z,95832.53
2023-04-15T05:40:25.120Z,95790.06
2023-04-15T05:42:51.537Z,95820.84
2023-04-15T05:45:18.040Z,95811.22
2023-04-15T05:47:44.529Z,95820.66
2023-04-15T05:50:11.139Z,95806.69
2023-04-15T05:52:37.664Z,95818.09
2023-04-15T05:55:04.209Z,95802.34
2023-04-15T05:57:30.601Z,95809.28
2023-04-15T05:59:57.124Z,95786.53
2023-04-15T06:02:23.754Z,95810.94
2023-04-15T06:04:50.340Z,95808.34
2023-04-15T06:07:16.901Z,95840.56
2023-04-15T06:09:43.459Z,95826.44
2023-04-15T06:12:09.953Z,95833.84
2023-04-15T06:14:36.432Z,95814.25
2023-04-15T06:17:02.884Z,95830.44
2023-04-15T06:19:29.354Z,95835.91
2023-04-15T06:21:55.724Z,95838.56
2023-04-15T06:24:22.256Z,95839.88
2023-04-15T06:26:48.768Z,95822.41
2023-04-15T06:29:15.226Z,95864.81
2023-04-15T06:31:41.697Z,95809.75
2023-04-15T06:34:08.251Z,95831.53
2023-04-15T06:36:34.733Z,95811.44
2023-04-15T06:39:01.491Z,95833.06
2023-04-15T06:41:28.108Z,95849.09
2023-04-15T06:43:55.542Z,95804.50
2023-04-15T06:46:22.072Z,95807.91
2023-04-15T06:48:48.714Z,95851.03
2023-04-15T06:51:15.253Z,95828.66
2023-04-15T06:53:42.070Z,95845.13
2023-04-15T06:56:08.723Z,95852.66
2023-04-15T06:58:35.234Z,95845.91
2023-04-15T07:01:01.877Z,95827.78
2023-04-15T07:03:29.152Z,95817.91
2023-04-15T07:05:56.754Z,95841.13
2023-04-15T07:08:23.293Z,95825.47
2023-04-15T07:10:49.887Z,95837.81
2023-04-15T07:13:16.356Z,95843.03
2023-04-15T07:15:42.902Z,95843.25
2023-04-15T07:18:09.359Z,95826.56
2023-04-15T07:20:35.797Z,95851.47
2023-04-15T07:23:02.385Z,95851.66
2023-04-15T07:25:28.889Z,95846.31
2023-04-15T07:27:55.444Z,95814.94
2023-04-15T07:30:21.975Z,95850.84
2023-04-15T07:32:48.668Z,95849.13
2023-04-15T07:35:15.170Z,95838.63
2023-04-15T07:37:41.695Z,95843.63
2023-04-15T07:40:08.526Z,95840.22
2023-04-15T07:42:35.124Z,95839.94
2023-04-15T07:45:01.775Z,95832.06
2023-04-15T07:47:28.182Z,95841.34
2023-04-15T07:49:54.667Z,95824.66
2023-04-15T07:52:21.152Z,95836.88
2023-04-15T07:54:47.511Z,95836.16
2023-04-15T07:57:13.886Z,95843.13
2023-04-15T07:59:40.483Z,95853.88
2023-04-15T08:02:06.951Z,95844.06
2023-04-15T08:04:33.531Z,95841.69
2023-04-15T08:07:00.436Z,95847.25
2023-04-15T08:09:26.929Z,95859.53
2023-04-15T08:11:53.390Z,95847.94
2023-04-15T08:14:20.268Z,95866.09
2023-04-15T08:16:46.687Z,95862.41
2023-04-15T08:19:13.099Z,95836.97
2023-04-15T08:21:39.554Z,95870.88
2023-04-15T08:24:06.118Z,95879.25
2023-04-15T08:26:32.588Z,95867.53
2023-04-15T08:28:59.073Z,95855.19
2023-04-15T08:31:26.522Z,95899.84
2023-04-15T08:33:52.977Z,95871.59
2023-04-15T08:39:19.047Z,95880.28
2023-04-15T08:41:59.742Z,95883.59
2023-04-15T08:44:36.147Z,95887.56
2023-04-15T08:47:03.045Z,95883.44
2023-04-15T08:49:29.809Z,95866.50
2023-04-15T08:51:57.953Z,95895.00
2023-04-15T08:54:24.376Z,95888.44
2023-04-15T08:56:50.862Z,95880.56
2023-04-15T08:59:17.407Z,95890.69
2023-04-15T09:01:43.888Z,95875.19
2023-04-15T09:04:10.996Z,95890.25
2023-04-15T09:06:37.410Z,95868.59
2023-04-15T09:09:04.142Z,95879.41
2023-04-15T09:11:30.796Z,95864.09
2023-04-15T09:13:57.449Z,95890.28
2023-04-15T09:16:23.940Z,95879.44
2023-04-15T09:18:51.259Z,95897.75
2023-04-15T09:21:18.052Z,95877.34
2023-04-15T09:23:57.842Z,95917.78
2023-04-15T09:26:34.440Z,95879.94
2023-04-15T09:29:05.042Z,95902.38
2023-04-15T09:31:31.599Z,95919.41
2023-04-15T09:33:58.078Z,95915.97
2023-04-15T09:36:24.551Z,95911.28
2023-04-15T09:38:54.953Z,95916.50
2023-04-15T09:41:21.435Z,95921.13
2023-04-15T09:43:47.952Z,95913.97
2023-04-15T09:46:14.548Z,95909.84
2023-04-15T09:48:42.928Z,95918.88
2023-04-15T09:51:09.420Z,95928.69
2023-04-15T09:53:36.197Z,95924.59
2023-04-15T09:56:02.832Z,95921.16
2023-04-15T09:58:30.117Z,95921.50
2023-04-15T10:00:57.143Z,95926.09
2023-04-15T10:03:24.807Z,95908.53
2023-04-15T10:05:52.041Z,95905.28
2023-04-15T10:08:19.123Z,95890.31
2023-04-15T10:10:45.939Z,95909.19
2023-04-15T10:13:13.554Z,95923.63
2023-04-15T10:15:40.192Z,95906.81
2023-04-15T10:18:06.759Z,95913.88
2023-04-15T10:20:33.264Z,95902.16
2023-04-15T10:22:59.812Z,95938.28
2023-04-15T10:25:26.278Z,95914.66
2023-04-15T10:27:52.661Z,95923.50
2023-04-15T10:30:19.132Z,95921.41
2023-04-15T10:32:45.767Z,95927.06
2023-04-15T10:35:12.238Z,95913.34
2023-04-15T10:37:38.827Z,95926.75
2023-04-15T10:40:24.216Z,95907.22
2023-04-15T10:42:51.127Z,95932.44
2023-04-15T10:45:18.257Z,95916.59
2023-04-15T10:47:44.824Z,95924.81
2023-04-15T10:50:11.396Z,95925.56
2023-04-15T10:52:40.124Z,95921.59
2023-04-15T10:55:22.817Z,95903.75
2023-04-15T10:57:58.612Z,95917.13
2023-04-15T11:00:25.534Z,95923.22
2023-04-15T11:02:53.244Z,95920.50
2023-04-15T11:05:20.378Z,95930.34
2023-04-15T11:07:46.793Z,95926.88
2023-04-15T11:10:13.329Z,95923.03
2023-04-15T11:12:39.990Z,95933.84
2023-04-15T11:15:25.254Z,95947.94
2023-04-15T11:17:51.974Z,95949.22
2023-04-15T11:20:18.427Z,95945.84
2023-04-15T11:22:51.668Z,95953.50
2023-04-15T11:25:23.919Z,95933.31
2023-04-15T11:27:50.760Z,95956.25
2023-04-15T11:30:24.297Z,95958.25
2023-04-15T11:32:51.115Z,95953.28
2023-04-15T11:35:18.018Z,95941.69
2023-04-15T11:37:44.858Z,95955.78
2023-04-15T11:40:12.073Z,95970.47
2023-04-15T11:42:49.221Z,95974.25
2023-04-15T11:45:16.587Z,95959.63
2023-04-15T11:47:43.131Z,95959.34
2023-04-15T11:50:19.061Z,96006.56
2023-04-15T11:52:54.538Z,95975.69
2023-04-15T11:55:21.082Z,95977.06
2023-04-15T11:57:47.505Z,95966.13
2023-04-15T12:00:14.077Z,95999.28
2023-04-15T12:02:40.900Z,95959.16
2023-04-15T12:05:08.573Z,95980.22
2023-04-15T12:07:54.004Z,95981.66
2023-04-15T12:10:20.787Z,95986.81
2023-04-15T12:12:49.556Z,95985.69
2023-04-15T12:15:16.067Z,95995.72
2023-04-15T12:17:51.434Z,95989.53
2023-04-15T12:20:25.096Z,96008.84
2023-04-15T12:22:51.741Z,96009.13
2023-04-15T12:25:18.248Z,95998.69
2023-04-15T12:27:50.614Z,95990.72
2023-04-15T12:30:17.110Z,96011.75
2023-04-15T12:32:43.830Z,96010.81
2023-04-15T12:35:10.232Z,96018.69
2023-04-15T12:37:37.009Z,96014.84
2023-04-15T12:40:03.580Z,96024.63
2023-04-15T12:42:30.080Z,96019.25
2023-04-15T12:44:56.553Z,96002.38
2023-04-15T12:47:23.116Z,96036.78
2023-04-15T12:49:49.605Z,96033.63
2023-04-15T12:52:16.146Z,96006.38
2023-04-15T12:54:42.594Z,96048.06
2023-04-15T12:57:09.122Z,96041.59
2023-04-15T12:59:35.745Z,96011.56
2023-04-15T13:02:02.205Z,96022.19
2023-04-15T13:04:28.965Z,96020.63
2023-04-15T13:06:55.526Z,96037.84
2023-04-15T13:09:22.026Z,96034.25
2023-04-15T13:11:48.506Z,96018.75
2023-04-15T13:14:16.758Z,96047.81
2023-04-15T13:16:43.277Z,96065.25
2023-04-15T13:19:10.055Z,96035.59
2023-04-15T13:21:36.645Z,96063.03
2023-04-15T13:24:03.892Z,96052.28
2023-04-15T13:26:30.822Z,96053.91
2023-04-15T13:28:57.350Z,96052.59
2023-04-15T13:31:23.813Z,96088.19
2023-04-15T13:33:50.468Z,96066.09
2023-04-15T13:36:16.849Z,96067.84
2023-04-15T13:38:43.335Z,96085.53
2023-04-15T13:44:09.229Z,96081.78
2023-04-15T13:46:35.836Z,96100.47
2023-04-15T13:49:02.248Z,96099.16
2023-04-15T13:51:28.812Z,96090.63
2023-04-15T13:53:55.304Z,96064.81
2023-04-15T13:56:21.696Z,96090.25
2023-04-15T13:58:48.224Z,96105.25
2023-04-15T14:01:14.893Z,96108.31
2023-04-15T14:03:41.464Z,96096.25
2023-04-15T14:06:08.142Z,96101.63
2023-04-15T14:08:34.604Z,96100.25
2023-04-15T14:11:01.218Z,96117.81
2023-04-15T14:13:27.678Z,96093.78
2023-04-15T14:15:54.234Z,96099.47
2023-04-15T14:18:20.720Z,96103.53
2023-04-15T14:29:19.960Z,96143.88
2023-04-15T14:32:04.547Z,96138.88
2023-04-15T14:34:33.179Z,96136.91
2023-04-15T14:36:59.669Z,96125.38
2023-04-15T14:39:26.097Z,96120.25
2023-04-15T14:41:52.613Z,96129.38
2023-04-15T14:44:19.024Z,96122.91
2023-04-15T14:46:45.524Z,96129.44
2023-04-15T14:49:12.009Z,96125.13
2023-04-15T14:51:40.722Z,96138.63
2023-04-15T14:54:08.291Z,96134.59
2023-04-15T14:56:34.898Z,96153.19
2023-04-15T14:59:01.361Z,96163.31
2023-04-15T15:01:28.109Z,96145.34
2023-04-15T15:03:54.728Z,96161.16
2023-04-15T15:06:21.458Z,96169.50
2023-04-15T15:08:48.651Z,96153.06
2023-04-15T15:11:15.574Z,96163.63
2023-04-15T15:13:42.109Z,96171.03
2023-04-15T15:16:08.612Z,96177.94
2023-04-15T15:18:35.704Z,96158.56
2023-04-15T15:21:02.238Z,96173.28
2023-04-15T15:23:28.695Z,96176.19
2023-04-15T15:25:55.272Z,96183.50
2023-04-15T15:28:21.656Z,96196.03
2023-04-15T15:30:48.230Z,96215.75
2023-04-15T15:33:14.805Z,96184.88
2023-04-15T15:35:41.316Z,96223.72
2023-04-15T15:38:07.868Z,96212.75
2023-04-15T15:40:34.414Z,96197.22
2023-04-15T15:43:00.863Z,96195.47
2023-04-15T15:45:27.406Z,96208.03
2023-04-15T15:47:54.032Z,96219.53
2023-04-15T15:50:20.577Z,96226.34
2023-04-15T15:52:47.001Z,96203.47
2023-04-15T15:55:13.629Z,96223.16
2023-04-15T15:57:40.162Z,96224.91
2023-04-15T16:05:06.765Z,96203.38
2023-04-15T16:07:33.233Z,96225.91
2023-04-15T16:09:59.694Z,96247.84
2023-04-15T16:12:26.131Z,96228.28
2023-04-15T16:14:52.610Z,96226.34
2023-04-15T16:17:19.145Z,96225.03
2023-04-15T16:19:57.006Z,96244.91
2023-04-15T16:22:27.689Z,96252.06
2023-04-15T16:24:54.124Z,96223.69
2023-04-15T16:30:34.940Z,96255.31
2023-04-15T16:33:04.402Z,96227.66
2023-04-15T16:35:32.211Z,96245.47
2023-04-15T16:38:00.543Z,96266.94
2023-04-15T16:40:26.996Z,96249.75
2023-04-15T16:42:53.567Z,96267.72
2023-04-15T16:45:20.034Z,96250.63
2023-04-15T16:47:46.547Z,96309.63
2023-04-15T16:50:13.112Z,96259.25
2023-04-15T16:52:39.560Z,96290.06
2023-04-15T16:55:06.450Z,96280.56
2023-04-15T16:58:01.051Z,96283.72
2023-04-15T17:00:19.516Z,96292.19
2023-04-15T17:02:46.171Z,96290.19
2023-04-15T17:05:12.801Z,96313.22
2023-04-15T17:07:39.255Z,96284.72
2023-04-15T17:10:06.279Z,96292.94
2023-04-15T17:12:32.704Z,96288.38
2023-04-15T17:14:59.108Z,96292.94
2023-04-15T17:17:25.628Z,96276.56
2023-04-15T17:19:52.046Z,96301.56
2023-04-15T17:22:18.419Z,96325.16
2023-04-15T17:24:45.026Z,96318.94
2023-04-15T17:27:11.418Z,96341.19
2023-04-15T17:29:38.118Z,96314.22
2023-04-15T17:32:04.761Z,96333.75
2023-04-15T17:34:49.989Z,96311.03
2023-04-15T17:37:17.827Z,96305.78
2023-04-15T17:39:45.012Z,96334.69
2023-04-15T17:42:11.532Z,96333.59
2023-04-15T17:44:38.028Z,96357.88
2023-04-15T17:47:04.549Z,96348.00
2023-04-15T17:49:31.050Z,96341.78
2023-04-15T17:51:57.693Z,96360.50
2023-04-15T17:54:24.095Z,96347.34
2023-04-15T17:56:50.573Z,96379.72
2023-04-15T17:59:17.150Z,96370.94
2023-04-15T18:01:43.622Z,96330.81
2023-04-15T18:04:10.642Z,96365.34
2023-04-15T18:06:37.576Z,96382.44
2023-04-15T18:09:04.256Z,96372.59
2023-04-15T18:11:32.143Z,96373.69
2023-04-15T18:13:58.994Z,96387.53
2023-04-15T18:16:25.910Z,96377.00
2023-04-15T18:18:52.444Z,96388.03
2023-04-15T18:21:19.271Z,96397.59
2023-04-15T18:23:45.775Z,96394.91
2023-04-15T18:26:12.647Z,96407.72
2023-04-15T18:28:39.140Z,96394.13
2023-04-15T18:31:05.742Z,96401.97
2023-04-15T18:33:32.214Z,96401.75
2023-04-15T18:35:58.694Z,96422.78
2023-04-15T18:38:25.143Z,96410.75
2023-04-15T18:40:51.870Z,96400.66
2023-04-15T18:43:18.680Z,96396.41
2023-04-15T18:45:45.261Z,96423.69
2023-04-15T18:48:11.823Z,96426.72
2023-04-15T18:50:38.260Z,96468.41
2023-04-15T18:53:04.717Z,96449.66
2023-04-15T18:55:31.154Z,96446.50
2023-04-15T18:58:08.409Z,96449.44
2023-04-15T19:00:35.752Z,96456.66
2023-04-15T19:03:02.269Z,96452.97
2023-04-15T19:05:29.630Z,96467.47
2023-04-15T19:07:57.409Z,96446.88
2023-04-15T19:10:25.715Z,96466.50
2023-04-15T19:12:53.266Z,96474.53
2023-04-15T19:15:19.741Z,96485.97
2023-04-15T19:17:46.262Z,96463.19
2023-04-15T19:20:12.749Z,96475.22
2023-04-15T19:22:39.440Z,96480.06
2023-04-15T19:25:06.252Z,96475.78
2023-04-15T19:27:32.688Z,96474.44
2023-04-15T19:29:59.135Z,96505.59
2023-04-15T19:32:25.753Z,96503.91
2023-04-15T19:34:52.218Z,96500.50
2023-04-15T19:37:18.698Z,96493.25
2023-04-15T19:39:45.197Z,96501.78
2023-04-15T19:42:11.567Z,96492.44
2023-04-15T19:44:37.988Z,96500.75
2023-04-15T19:47:04.494Z,96503.41
2023-04-15T19:49:30.895Z,96496.44
2023-04-15T19:51:57.296Z,96502.91
2023-04-15T19:54:23.782Z,96513.03
2023-04-15T19:56:50.200Z,96466.50
2023-04-15T19:59:16.874Z,96484.97
2023-04-15T20:01:43.442Z,96522.75
2023-04-15T20:04:10.074Z,96503.78
2023-04-15T20:06:36.608Z,96508.88
2023-04-15T20:09:03.289Z,96519.53
2023-04-15T20:12:47.425Z,96514.72
2023-04-15T20:14:16.439Z,96505.06
2023-04-15T20:16:42.909Z,96521.66
2023-04-15T20:19:09.412Z,96519.28
2023-04-15T20:21:36.291Z,96510.41
2023-04-15T20:24:02.903Z,96516.06
2023-04-15T20:26:29.862Z,96534.56
2023-04-15T20:28:56.569Z,96541.25
2023-04-15T20:31:23.084Z,96524.63
2023-04-15T20:33:49.557Z,96545.53
2023-04-15T20:36:16.024Z,96542.84
2023-04-15T20:38:42.499Z,96533.47
2023-04-15T20:41:09.017Z,96526.53
2023-04-15T20:43:35.685Z,96549.53
2023-04-15T20:46:07.052Z,96551.13
2023-04-15T20:48:44.236Z,96547.66
2023-04-15T20:51:10.729Z,96526.53
2023-04-15T20:53:37.486Z,96553.81
2023-04-15T20:56:04.050Z,96548.75
2023-04-15T20:58:30.530Z,96577.91
2023-04-15T21:00:56.943Z,96551.47
2023-04-15T21:03:23.667Z,96564.50
2023-04-15T21:05:50.311Z,96541.50
2023-04-15T21:08:17.024Z,96561.25
2023-04-15T21:10:43.549Z,96540.41
2023-04-15T21:13:09.934Z,96563.94
2023-04-15T21:15:36.331Z,96574.94
2023-04-15T21:18:02.818Z,96564.81
2023-04-15T21:20:29.251Z,96612.16
2023-04-15T21:22:55.687Z,96567.47
2023-04-15T21:25:22.190Z,96586.19
2023-04-15T21:27:48.669Z,96573.34
2023-04-15T21:30:15.177Z,96569.63
2023-04-15T21:32:41.748Z,96585.44
2023-04-15T21:35:08.595Z,96612.72
2023-04-15T21:37:35.120Z,96572.28
2023-04-15T21:40:01.751Z,96601.16
2023-04-15T21:42:29.420Z,96607.88
2023-04-15T21:44:55.911Z,96616.19
2023-04-15T21:47:22.500Z,96594.00
2023-04-15T21:49:49.257Z,96618.59
2023-04-15T21:52:15.653Z,96586.53
2023-04-15T21:54:42.139Z,96607.38
2023-04-15T21:57:08.557Z,96613.25
2023-04-15T21:59:35.009Z,96619.16
2023-04-15T22:02:01.601Z,96616.47
2023-04-15T22:04:28.166Z,96613.75
2023-04-15T22:06:54.674Z,96615.66
2023-04-15T22:09:21.274Z,96615.63
2023-04-15T22:11:47.818Z,96619.66
2023-04-15T22:14:14.340Z,96609.78
2023-04-15T22:16:40.997Z,96622.63
2023-04-15T22:19:07.785Z,96614.84
2023-04-15T22:21:34.521Z,96636.00
2023-04-15T22:24:38.106Z,96644.84
2023-04-15T22:26:47.461Z,96657.16
2023-04-15T22:29:13.990Z,96647.00
2023-04-15T22:31:40.569Z,96664.41
2023-04-15T22:34:07.198Z,96666.78
2023-04-15T22:36:33.738Z,96645.66
2023-04-15T22:39:00.261Z,96652.63
2023-04-15T22:41:27.069Z,96638.19
2023-04-15T22:43:53.647Z,96655.28
2023-04-15T22:46:20.216Z,96652.31
2023-04-15T22:48:46.774Z,96661.44
2023-04-15T22:51:13.275Z,96635.22
2023-04-15T22:53:39.659Z,96649.69
2023-04-15T22:56:06.325Z,96675.13
2023-04-15T22:58:33.208Z,96671.09
2023-04-15T23:00:59.770Z,96671.94
2023-04-15T23:03:26.384Z,96667.84
2023-04-15T23:05:53.108Z,96663.88
2023-04-15T23:08:19.801Z,96668.69
2023-04-15T23:10:46.263Z,96664.69
2023-04-15T23:13:12.801Z,96658.78
2023-04-15T23:15:39.458Z,96670.84
2023-04-15T23:18:06.100Z,96667.59
2023-04-15T23:20:32.718Z,96676.19
2023-04-15T23:22:59.370Z,96681.78
2023-04-15T23:25:25.778Z,96669.25
2023-04-15T23:27:52.414Z,96672.44
2023-04-15T23:30:18.954Z,96680.22
2023-04-15T23:32:45.528Z,96663.06
2023-04-15T23:35:12.184Z,96660.09
2023-04-15T23:37:38.672Z,96649.94
2023-04-15T23:40:05.396Z,96675.66
2023-04-15T23:42:31.944Z,96677.00
2023-04-15T23:44:58.464Z,96671.63
2023-04-15T23:47:25.021Z,96673.81
2023-04-15T23:49:51.551Z,96664.94
2023-04-15T23:52:18.036Z,96672.44
2023-04-15T23:54:44.481Z,96671.91
2023-04-15T23:57:10.991Z,96671.09
2023-04-15T23:59:37.418Z,96659.84
